Flight Track Log - Related Links

Times and Time Zones

All times are in EDT time to prevent confusion due to time zone crossing. See the N5349M flight status page for this flight to view local times or setup timezone preferences in your user account.

Time Position Orientation Groundspeed Altitude Reporting Facility
EDT Latitude Longitude Course Direction KTS MPH feet Rate Location/Type
Sun 06:57:00 PM 36.3538 -82.4290 263° West  Level FlightAware Approximate
Sun 06:58:00 PM 36.3500 -82.4814 270° West  Level FlightAware Approximate
Sun 06:59:00 PM 36.3494 -82.5340 269° West  Level FlightAware Approximate
Sun 07:00:00 PM 36.3486 -82.5866 269° West  Level FlightAware Approximate
Sun 07:01:00 PM 36.3477 -82.6393 269° West  Level FlightAware Approximate
Sun 07:02:00 PM 36.3468 -82.6919 269° West  Level FlightAware Approximate
Sun 07:03:00 PM 36.3458 -82.7446 269° West  Level FlightAware Approximate
Sun 07:04:00 PM 36.3449 -82.7972 269° West  Level FlightAware Approximate
Sun 07:05:00 PM 36.3439 -82.8499 269° West  Level FlightAware Approximate
Sun 07:06:00 PM 36.3429 -82.9025 269° West  Level FlightAware Approximate
Sun 07:07:00 PM 36.3418 -82.9551 269° West  Level FlightAware Approximate
Sun 07:08:00 PM 36.3408 -83.0078 269° West  Level FlightAware Approximate
Sun 07:09:00 PM 36.3397 -83.0604 269° West  Level FlightAware Approximate
Sun 07:10:00 PM 36.3386 -83.1130 269° West  Level FlightAware Approximate
Sun 07:11:00 PM 36.3375 -83.1656 268° West  Level FlightAware Approximate
Sun 07:12:00 PM 36.3363 -83.2183 268° West  Level FlightAware Approximate
Sun 07:13:00 PM 36.3351 -83.2709 268° West  Level FlightAware Approximate
Sun 07:14:00 PM 36.3339 -83.3235 268° West  Level FlightAware Approximate
Sun 07:15:00 PM 36.3324 -83.3761 268° West  Level FlightAware Approximate
Sun 07:16:00 PM 36.3306 -83.4287 268° West  Level FlightAware Approximate
Sun 07:17:00 PM 36.3288 -83.4813 268° West  Level FlightAware Approximate
Sun 07:18:00 PM 36.3269 -83.5339 268° West  Level FlightAware Approximate
Sun 07:19:00 PM 36.3251 -83.5865 267° West  Level FlightAware Approximate
Sun 07:20:00 PM 36.3231 -83.6391 267° West  Level FlightAware Approximate
Sun 07:21:00 PM 36.3212 -83.6917 267° West  Level FlightAware Approximate
Sun 07:22:00 PM 36.3193 -83.7442 267° West  Level FlightAware Approximate
Sun 07:23:00 PM 36.3173 -83.7968 267° West  Level FlightAware Approximate
Sun 07:24:00 PM 36.3153 -83.8494 267° West  Level FlightAware Approximate
Sun 07:25:00 PM 36.3133 -83.9020 267° West  Level FlightAware Approximate
Sun 07:26:00 PM 36.3112 -83.9545 267° West  Level FlightAware Approximate
Sun 07:26:40 PM 36.2211 -84.0361 267° West 164 189 8,100  Level Atlanta Center
Sun 07:27:00 PM 36.3092 -84.0071 267° West  Level FlightAware Approximate
Sun 07:27:40 PM 36.2208 -84.0928 270° West 164 189 8,100  Level Atlanta Center
Sun 07:28:00 PM 36.3071 -84.0597 267° West  Level FlightAware Approximate
Sun 07:28:40 PM 36.2231 -84.1469 273° West 164 189 8,100  Level Atlanta Center
Sun 07:29:00 PM 36.3050 -84.1122 267° West  Level FlightAware Approximate
Sun 07:29:40 PM 36.2208 -84.2008 267° West 159 183 8,100  Level Atlanta Center
Sun 07:30:00 PM 36.3028 -84.1648 267° West  Level FlightAware Approximate
Sun 07:30:40 PM 36.2208 -84.2575 270° West 159 183 8,100  Level Atlanta Center
Sun 07:31:00 PM 36.3007 -84.2173 267° West  Level FlightAware Approximate
Sun 07:31:40 PM 36.2206 -84.3142 270° West 159 183 8,100  Level Atlanta Center
Sun 07:32:40 PM 36.2206 -84.3681 270° West 159 183 8,100  Level Atlanta Center
Sun 07:33:40 PM 36.2203 -84.4222 270° West 159 183 8,100  Level Atlanta Center
Sun 07:34:40 PM 36.2203 -84.4761 270° West 159 183 8,100  Level Atlanta Center
Sun 07:35:40 PM 36.2178 -84.5328 267° West 159 183 8,100 50 Level Atlanta Center
Sun 07:36:40 PM 36.2178 -84.5869 270° West 159 183 8,200 50 Climbing Atlanta Center
Sun 07:37:40 PM 36.2194 -84.6383 272° West 159 183 8,200  Level Atlanta Center
Sun 07:38:40 PM 36.2192 -84.6925 270° West 159 183 8,200  Level Atlanta Center
Sun 07:39:40 PM 36.2169 -84.7464 267° West 159 183 8,200  Level Atlanta Center
Sun 07:40:13 PM 36.2178 -84.7778 272° West 153 176 8,200  Level Indianapolis Center
Sun 07:41:14 PM 36.2172 -84.8308 269° West 154 177 8,200  Level Indianapolis Center
Sun 07:42:16 PM 36.2169 -84.8833 270° West 154 177 8,200  Level Indianapolis Center
Sun 07:43:18 PM 36.2164 -84.9364 269° West 155 178 8,200  Level Indianapolis Center

Login

Don't have an account? Register now (free) for customized features, flight alerts, and more!